createdAt,value
2019-02-21T06:55:44.955Z,53.40
2019-02-21T06:56:44.932Z,45.30
2019-02-21T06:57:44.939Z,45.20
2019-02-21T06:58:44.944Z,44.30
2019-02-21T06:59:45.403Z,41.30
2019-02-21T07:00:46.222Z,42.30
2019-02-21T07:01:44.952Z,38.40
2019-02-21T07:02:44.956Z,39.00
2019-02-21T07:03:44.963Z,42.50
2019-02-21T07:04:44.966Z,39.60
2019-02-21T07:05:44.975Z,39.90
2019-02-21T07:06:44.973Z,39.20
2019-02-21T07:07:44.987Z,41.90
2019-02-21T07:08:44.979Z,42.50
2019-02-21T07:09:44.987Z,40.40
2019-02-21T07:10:44.987Z,38.20
2019-02-21T07:11:46.083Z,38.10
2019-02-21T07:12:44.996Z,40.40
2019-02-21T07:13:44.996Z,37.30
2019-02-21T07:14:45.005Z,43.90
2019-02-21T07:15:45.028Z,43.00
2019-02-21T07:16:45.008Z,38.30
2019-02-21T07:17:49.186Z,40.10
2019-02-21T07:18:45.018Z,39.30
2019-02-21T07:19:45.019Z,39.60
2019-02-21T07:20:45.022Z,45.10
2019-02-21T07:21:45.028Z,42.60
2019-02-21T07:22:45.034Z,38.50
2019-02-21T07:23:45.027Z,41.40
2019-02-21T07:24:45.032Z,35.30
2019-02-21T07:25:45.044Z,37.10
2019-02-21T07:26:45.051Z,39.60
2019-02-21T07:27:45.114Z,35.40
2019-02-21T07:28:45.056Z,41.50
2019-02-21T07:29:45.055Z,38.00
2019-02-21T07:30:45.062Z,42.90
2019-02-21T07:31:45.065Z,38.30
2019-02-21T07:32:45.077Z,40.00
2019-02-21T07:33:45.078Z,36.70
2019-02-21T07:34:45.078Z,36.60
2019-02-21T07:35:45.083Z,36.10
2019-02-21T07:36:45.090Z,35.70
2019-02-21T07:37:45.099Z,36.50
2019-02-21T07:38:45.089Z,37.50
2019-02-21T07:39:45.101Z,38.20
2019-02-21T07:40:45.102Z,40.40
2019-02-21T07:41:45.105Z,38.00
2019-02-21T07:42:45.125Z,37.60
2019-02-21T07:43:45.136Z,37.60
2019-02-21T07:44:45.463Z,37.00
2019-02-21T07:45:45.136Z,36.70
2019-02-21T07:46:46.314Z,36.70
2019-02-21T07:47:45.136Z,36.80
2019-02-21T07:48:45.139Z,39.10
2019-02-21T07:49:45.149Z,36.00
2019-02-21T07:50:45.159Z,37.10
2019-02-21T07:51:45.154Z,36.90
2019-02-21T07:52:45.168Z,35.00
2019-02-21T07:53:45.165Z,33.40
2019-02-21T07:54:45.164Z,32.60
2019-02-21T07:55:45.195Z,36.70
2019-02-21T07:56:45.181Z,36.10
2019-02-21T07:57:45.196Z,35.10
2019-02-21T07:58:45.208Z,35.90
2019-02-21T07:59:45.195Z,37.20
2019-02-21T08:00:45.203Z,37.00
2019-02-21T08:01:45.219Z,33.60
2019-02-21T08:02:45.213Z,34.70
2019-02-21T08:03:48.313Z,36.70
2019-02-21T08:04:45.226Z,33.50
2019-02-21T08:05:45.232Z,35.40
2019-02-21T08:06:45.233Z,33.00
2019-02-21T08:07:45.247Z,36.40
2019-02-21T08:08:45.246Z,35.90
2019-02-21T08:09:45.256Z,34.00
2019-02-21T08:10:45.269Z,34.00
2019-02-21T08:11:45.280Z,31.80
2019-02-21T08:12:45.283Z,37.10
2019-02-21T08:13:45.287Z,33.50
2019-02-21T08:14:45.312Z,30.20
2019-02-21T08:15:45.342Z,34.30
2019-02-21T08:16:45.316Z,35.50
2019-02-21T08:17:45.318Z,33.30
2019-02-21T08:18:45.321Z,33.90
2019-02-21T08:19:45.332Z,32.00
2019-02-21T08:20:45.339Z,35.40
2019-02-21T08:21:45.438Z,38.70
2019-02-21T08:22:45.359Z,33.40
2019-02-21T08:23:50.456Z,39.00
2019-02-21T08:24:45.362Z,36.00
2019-02-21T08:25:45.368Z,37.70
2019-02-21T08:26:45.376Z,38.00
2019-02-21T08:27:45.398Z,35.40
2019-02-21T08:28:45.382Z,39.00
2019-02-21T08:29:45.385Z,33.60
2019-02-21T08:30:45.402Z,34.20
2019-02-21T08:31:45.411Z,37.90
2019-02-21T08:32:45.413Z,37.50
2019-02-21T08:33:55.448Z,39.30
2019-02-21T08:34:48.057Z,37.20
2019-02-21T08:35:45.434Z,37.10
2019-02-21T08:36:45.435Z,37.50
2019-02-21T08:37:45.435Z,34.20
2019-02-21T08:38:45.446Z,37.50
2019-02-21T08:39:45.454Z,39.10
2019-02-21T08:40:45.459Z,41.10
2019-02-21T08:41:45.464Z,37.10
2019-02-21T08:42:45.482Z,37.10
2019-02-21T08:43:45.483Z,36.50
2019-02-21T08:44:45.481Z,36.70
2019-02-21T08:45:45.494Z,38.20
2019-02-21T08:46:45.508Z,35.60
2019-02-21T08:47:45.496Z,38.50
2019-02-21T08:48:47.726Z,38.40
2019-02-21T08:49:45.512Z,38.80
2019-02-21T08:50:45.518Z,37.30
2019-02-21T08:51:45.530Z,38.90
2019-02-21T08:52:45.535Z,40.60
2019-02-21T08:53:45.530Z,42.40
2019-02-21T08:54:45.540Z,42.00
2019-02-21T08:55:45.545Z,39.80
2019-02-21T08:56:45.554Z,35.40
2019-02-21T08:57:45.569Z,40.10
2019-02-21T08:58:45.598Z,42.50
2019-02-21T08:59:45.577Z,37.50
2019-02-21T09:00:45.580Z,41.60
2019-02-21T09:01:45.582Z,38.40
2019-02-21T09:02:45.600Z,38.00
2019-02-21T09:03:45.591Z,41.20
2019-02-21T09:04:45.607Z,38.50
2019-02-21T09:05:45.603Z,40.60
2019-02-21T09:06:45.612Z,38.80
2019-02-21T09:07:46.569Z,41.70
2019-02-21T09:08:45.625Z,40.40
2019-02-21T09:09:45.628Z,39.00
2019-02-21T09:10:45.629Z,38.80
2019-02-21T09:11:45.649Z,39.50
2019-02-21T09:12:48.465Z,44.00
2019-02-21T09:13:45.648Z,42.50
2019-02-21T09:14:45.663Z,37.70
2019-02-21T09:15:46.579Z,41.90
2019-02-21T09:16:45.672Z,40.80
2019-02-21T09:17:45.673Z,43.70
2019-02-21T09:18:45.686Z,43.70
2019-02-21T09:19:45.691Z,41.80
2019-02-21T09:20:47.722Z,42.50
2019-02-21T09:21:45.702Z,40.20
2019-02-21T09:22:45.721Z,43.50
2019-02-21T09:23:45.711Z,42.60
2019-02-21T09:24:45.712Z,40.50
2019-02-21T09:25:45.716Z,44.20
2019-02-21T09:26:45.738Z,40.90
2019-02-21T09:27:45.740Z,42.10
2019-02-21T09:28:45.740Z,38.40
2019-02-21T09:29:45.749Z,40.80
2019-02-21T09:30:45.785Z,48.10
2019-02-21T09:31:45.768Z,40.10
2019-02-21T09:32:45.774Z,40.70
2019-02-21T09:33:45.767Z,43.10
2019-02-21T09:34:45.778Z,45.70
2019-02-21T09:35:45.782Z,45.70
2019-02-21T09:36:45.788Z,43.40
2019-02-21T09:37:45.810Z,45.50
2019-02-21T09:38:45.839Z,40.90
2019-02-21T09:39:45.808Z,44.90
2019-02-21T09:40:45.829Z,44.80
2019-02-21T09:41:45.828Z,39.60
2019-02-21T09:42:45.819Z,47.00
2019-02-21T09:43:45.838Z,46.00
2019-02-21T09:44:45.837Z,43.80
2019-02-21T09:45:45.837Z,45.00
2019-02-21T09:46:45.853Z,41.70
2019-02-21T09:47:45.855Z,45.60
2019-02-21T09:48:45.859Z,46.50
2019-02-21T09:49:45.861Z,47.00
2019-02-21T09:50:45.882Z,51.00
2019-02-21T09:51:45.871Z,50.40
2019-02-21T09:52:45.885Z,44.70
2019-02-21T09:53:45.889Z,46.70
2019-02-21T09:54:47.522Z,48.90
2019-02-21T09:55:45.894Z,42.10
2019-02-21T09:56:52.927Z,43.10
2019-02-21T09:57:45.919Z,51.30
2019-02-21T09:58:46.093Z,48.50
2019-02-21T09:59:45.932Z,48.00
2019-02-21T10:00:45.932Z,44.40
2019-02-21T10:01:45.940Z,48.10
2019-02-21T10:02:45.952Z,46.10
2019-02-21T10:03:45.957Z,46.90
2019-02-21T10:04:45.959Z,46.70
2019-02-21T10:05:45.976Z,47.00
2019-02-21T10:06:45.974Z,43.80
2019-02-21T10:07:45.979Z,47.00
2019-02-21T10:08:45.989Z,49.20
2019-02-21T10:09:46.014Z,49.70
2019-02-21T10:10:46.001Z,47.50
2019-02-21T10:12:46.017Z,46.90
2019-02-21T10:13:46.033Z,45.80
2019-02-21T10:14:46.033Z,47.50
2019-02-21T10:15:47.131Z,52.80
2019-02-21T10:16:46.131Z,49.80
2019-02-21T10:17:46.061Z,48.30
2019-02-21T10:18:46.069Z,50.60
2019-02-21T10:19:46.071Z,49.90
2019-02-21T10:20:46.073Z,46.00
2019-02-21T10:21:46.088Z,52.70
2019-02-21T10:22:46.095Z,49.50
2019-02-21T10:23:46.101Z,44.90
2019-02-21T10:24:46.115Z,51.00
2019-02-21T10:25:46.111Z,54.00
2019-02-21T10:26:46.118Z,47.80
2019-02-21T10:27:46.129Z,45.70
2019-02-21T10:28:46.137Z,50.20
2019-02-21T10:29:46.140Z,49.80
2019-02-21T10:30:46.156Z,51.80
2019-02-21T10:31:46.162Z,52.00
2019-02-21T10:32:46.182Z,48.70
2019-02-21T10:33:47.294Z,48.40
2019-02-21T10:34:46.190Z,49.40
2019-02-21T10:35:46.193Z,50.10
2019-02-21T10:36:46.203Z,52.10
2019-02-21T10:37:46.203Z,48.90
2019-02-21T10:38:46.218Z,49.70
2019-02-21T10:39:47.900Z,46.80
2019-02-21T10:40:46.234Z,46.20
2019-02-21T10:41:46.241Z,43.70
2019-02-21T10:42:46.255Z,44.60
2019-02-21T10:43:46.259Z,51.50
2019-02-21T10:44:46.265Z,49.30
2019-02-21T10:45:48.158Z,45.70
2019-02-21T10:46:46.312Z,44.10
2019-02-21T10:47:46.297Z,45.80
2019-02-21T10:48:46.306Z,48.80
2019-02-21T10:49:46.307Z,50.30
2019-02-21T10:50:46.320Z,48.70
2019-02-21T10:51:46.318Z,48.30
2019-02-21T10:52:46.331Z,47.40
2019-02-21T10:53:46.340Z,45.20
2019-02-21T10:54:46.347Z,48.70
2019-02-21T10:55:48.073Z,47.60
2019-02-21T10:56:46.356Z,50.00
2019-02-21T10:57:46.365Z,47.80
2019-02-21T10:58:46.391Z,45.80
2019-02-21T10:59:47.127Z,45.90
2019-02-21T11:00:46.395Z,46.80
2019-02-21T11:01:46.401Z,47.60
2019-02-21T11:02:46.400Z,45.60
2019-02-21T11:03:46.424Z,45.60
2019-02-21T11:04:54.457Z,47.50
2019-02-21T11:05:46.430Z,50.40
2019-02-21T11:06:46.443Z,47.10
2019-02-21T11:07:46.444Z,44.60
2019-02-21T11:08:46.460Z,44.20
2019-02-21T11:09:46.467Z,42.40
2019-02-21T11:10:46.487Z,43.80
2019-02-21T11:11:46.483Z,44.40
2019-02-21T11:12:46.494Z,52.50
2019-02-21T11:13:46.503Z,47.90
2019-02-21T11:14:47.731Z,46.70
2019-02-21T11:15:46.528Z,46.30
2019-02-21T11:16:46.530Z,46.00
2019-02-21T11:17:46.558Z,45.40
2019-02-21T11:18:46.541Z,43.80
2019-02-21T11:19:46.556Z,49.20
2019-02-21T11:20:46.584Z,44.40
2019-02-21T11:21:46.567Z,46.80
2019-02-21T11:22:46.583Z,46.00
2019-02-21T11:23:46.586Z,45.60
2019-02-21T11:24:46.600Z,44.90
2019-02-21T11:25:46.604Z,45.50
2019-02-21T11:26:46.619Z,45.10
2019-02-21T11:27:46.618Z,43.20
2019-02-21T11:28:47.388Z,40.90
2019-02-21T11:29:46.641Z,42.30
2019-02-21T11:30:46.644Z,44.90
2019-02-21T11:31:46.656Z,42.50
2019-02-21T11:32:46.663Z,40.90
2019-02-21T11:33:46.669Z,44.50
2019-02-21T11:34:46.679Z,42.80
2019-02-21T11:35:46.697Z,42.50
2019-02-21T11:36:46.705Z,44.60
2019-02-21T11:37:47.505Z,43.00
2019-02-21T11:38:46.708Z,43.40
2019-02-21T11:39:46.725Z,40.10
2019-02-21T11:40:46.734Z,41.60
2019-02-21T11:41:46.782Z,40.80
2019-02-21T11:42:46.746Z,39.00
2019-02-21T11:43:46.755Z,42.20
2019-02-21T11:44:46.768Z,38.40
2019-02-21T11:45:53.937Z,43.50
2019-02-21T11:46:46.777Z,44.80
2019-02-21T11:47:46.788Z,48.40
2019-02-21T11:48:46.819Z,44.20
2019-02-21T11:49:46.801Z,49.10
2019-02-21T11:50:46.806Z,47.40
2019-02-21T11:51:46.819Z,44.90
2019-02-21T11:52:46.823Z,41.80
2019-02-21T11:53:46.828Z,44.80
2019-02-21T11:54:46.836Z,44.90
2019-02-21T11:55:46.853Z,44.60
2019-02-21T11:56:46.865Z,48.80
2019-02-21T11:57:46.860Z,43.40
2019-02-21T11:58:46.865Z,41.20
2019-02-21T11:59:46.881Z,42.60
2019-02-21T12:00:46.890Z,44.10
2019-02-21T12:01:46.894Z,38.20
2019-02-21T12:02:46.909Z,40.70
2019-02-21T12:03:46.935Z,38.10
2019-02-21T12:04:46.935Z,37.60
2019-02-21T12:05:46.948Z,34.90
2019-02-21T12:06:47.753Z,36.60
2019-02-21T12:07:46.967Z,36.50
2019-02-21T12:08:46.982Z,36.60
2019-02-21T12:09:46.987Z,36.00
2019-02-21T12:10:47.002Z,36.10
2019-02-21T12:11:47.032Z,38.70
2019-02-21T12:12:47.034Z,38.70
2019-02-21T12:13:47.038Z,35.20
2019-02-21T12:14:47.050Z,33.80
2019-02-21T12:15:47.062Z,37.00
2019-02-21T12:16:47.083Z,34.90
2019-02-21T12:17:47.080Z,30.10
2019-02-21T12:18:47.099Z,31.40
2019-02-21T12:19:47.106Z,31.20
2019-02-21T12:20:47.123Z,33.90
2019-02-21T12:21:58.432Z,40.40
2019-02-21T12:22:47.138Z,36.10
2019-02-21T12:23:47.150Z,33.80
2019-02-21T12:24:47.157Z,31.80
2019-02-21T12:25:47.165Z,28.30
2019-02-21T12:26:47.174Z,30.90
2019-02-21T12:27:47.190Z,33.90
2019-02-21T12:28:47.217Z,30.90
2019-02-21T12:29:47.213Z,30.60
2019-02-21T12:30:47.227Z,29.40
2019-02-21T12:31:47.240Z,27.60
2019-02-21T12:32:47.250Z,28.20
2019-02-21T12:33:47.260Z,27.10
2019-02-21T12:34:47.253Z,28.00
2019-02-21T12:35:47.269Z,29.80
2019-02-21T12:36:47.283Z,29.30
2019-02-21T12:37:47.292Z,25.60
2019-02-21T12:38:47.302Z,28.70
2019-02-21T12:39:47.307Z,27.00
2019-02-21T12:40:47.322Z,27.10
2019-02-21T12:41:47.336Z,25.50
2019-02-21T12:42:47.338Z,26.90
2019-02-21T12:43:47.352Z,26.30
2019-02-21T12:44:47.954Z,26.80
2019-02-21T12:45:47.367Z,28.20
2019-02-21T12:46:47.373Z,26.50
2019-02-21T12:47:52.946Z,27.80
2019-02-21T12:48:47.395Z,27.20
2019-02-21T12:49:47.414Z,30.50
2019-02-21T12:50:47.411Z,29.20
2019-02-21T12:51:47.425Z,27.10
2019-02-21T12:52:47.431Z,34.70
2019-02-21T12:53:47.444Z,34.30
2019-02-21T12:54:47.459Z,31.20
2019-02-21T12:55:47.458Z,28.50
2019-02-21T12:56:47.467Z,29.20
2019-02-21T12:57:47.478Z,30.80
2019-02-21T12:58:47.493Z,28.00
2019-02-21T12:59:47.492Z,29.90
2019-02-21T13:00:47.516Z,28.20
2019-02-21T13:01:47.512Z,27.10
2019-02-21T13:02:47.522Z,26.30
2019-02-21T13:03:47.533Z,28.40
2019-02-21T13:04:47.547Z,29.40
2019-02-21T13:05:47.548Z,27.90
2019-02-21T13:06:47.566Z,28.20
2019-02-21T13:07:47.566Z,29.40
2019-02-21T13:08:47.577Z,25.30
2019-02-21T13:09:47.592Z,26.90
2019-02-21T13:10:47.598Z,25.40
2019-02-21T13:11:47.607Z,25.90
2019-02-21T13:12:47.611Z,28.60
2019-02-21T13:13:47.622Z,28.00
2019-02-21T13:14:47.636Z,26.20
2019-02-21T13:15:47.651Z,27.90
2019-02-21T13:16:47.651Z,22.80
2019-02-21T13:17:47.669Z,22.10
2019-02-21T13:18:47.673Z,22.70
2019-02-21T13:19:47.677Z,21.90
2019-02-21T13:20:47.693Z,21.50
2019-02-21T13:21:47.696Z,22.40
2019-02-21T13:22:47.705Z,19.20
2019-02-21T13:23:47.719Z,23.60
2019-02-21T13:24:47.728Z,22.20
2019-02-21T13:25:47.733Z,24.60
2019-02-21T13:26:47.743Z,25.90
2019-02-21T13:27:47.749Z,25.30
2019-02-21T13:28:47.761Z,21.90
2019-02-21T13:29:47.764Z,24.70
2019-02-21T13:30:47.784Z,25.80
2019-02-21T13:31:47.795Z,26.40
2019-02-21T13:32:47.800Z,27.20
2019-02-21T13:33:47.818Z,23.80
2019-02-21T13:34:47.818Z,35.30
2019-02-21T13:35:52.801Z,26.10
2019-02-21T13:36:47.844Z,23.00
2019-02-21T13:37:47.841Z,25.30
2019-02-21T13:38:47.850Z,26.00
2019-02-21T13:39:47.851Z,26.40
2019-02-21T13:40:49.627Z,27.20
2019-02-21T13:41:47.877Z,28.20
2019-02-21T13:42:47.881Z,25.30
2019-02-21T13:43:47.895Z,25.10
2019-02-21T13:44:47.896Z,22.70
2019-02-21T13:45:47.909Z,24.90
2019-02-21T13:46:47.918Z,29.80
2019-02-21T13:47:47.924Z,26.60
2019-02-21T13:48:47.933Z,27.30
2019-02-21T13:49:47.945Z,26.20
2019-02-21T13:50:47.946Z,26.70
2019-02-21T13:51:47.966Z,25.10
2019-02-21T13:52:47.956Z,24.50
2019-02-21T13:53:47.993Z,28.00
2019-02-21T13:54:47.997Z,24.30
2019-02-21T13:55:50.842Z,28.10
2019-02-21T13:56:48.000Z,26.10
2019-02-21T13:57:48.009Z,27.40
2019-02-21T13:58:48.011Z,30.00
2019-02-21T13:59:48.022Z,28.20
2019-02-21T14:00:48.031Z,29.20
2019-02-21T14:01:48.041Z,34.50
2019-02-21T14:02:48.050Z,24.80
2019-02-21T14:03:48.055Z,25.30
2019-02-21T14:04:48.063Z,30.40
2019-02-21T14:05:48.076Z,24.20
2019-02-21T14:06:48.092Z,24.50
2019-02-21T14:07:48.099Z,24.40
2019-02-21T14:08:48.096Z,26.50
2019-02-21T14:09:48.111Z,24.10
2019-02-21T14:10:48.127Z,29.30
2019-02-21T14:11:48.139Z,26.20
2019-02-21T14:12:48.154Z,28.10
2019-02-21T14:13:48.125Z,26.50
2019-02-21T14:14:48.147Z,23.80
2019-02-21T14:15:48.147Z,22.10
2019-02-21T14:16:48.164Z,22.80
2019-02-21T14:17:48.170Z,24.90
2019-02-21T14:18:48.181Z,30.30
2019-02-21T14:19:48.189Z,23.20
2019-02-21T14:20:48.286Z,23.60
2019-02-21T14:21:48.266Z,22.70
2019-02-21T14:22:48.202Z,26.80
2019-02-21T14:23:48.223Z,23.80
2019-02-21T14:24:48.228Z,24.70
2019-02-21T14:25:48.238Z,29.00
2019-02-21T14:26:48.250Z,25.70
2019-02-21T14:27:48.249Z,23.90
2019-02-21T14:28:48.262Z,24.70
2019-02-21T14:29:48.263Z,23.60
2019-02-21T14:30:48.287Z,22.60
2019-02-21T14:31:48.292Z,21.90
2019-02-21T14:32:48.290Z,20.80
2019-02-21T14:33:48.302Z,25.50
2019-02-21T14:34:48.322Z,27.10
2019-02-21T14:35:48.313Z,25.70
2019-02-21T14:36:48.316Z,26.60
2019-02-21T14:37:48.343Z,28.00
2019-02-21T14:38:48.355Z,24.60
2019-02-21T14:39:48.348Z,28.50
2019-02-21T14:40:48.356Z,24.50
2019-02-21T14:41:48.369Z,28.40
2019-02-21T14:42:48.369Z,24.00
2019-02-21T14:43:48.384Z,25.00
2019-02-21T14:44:49.550Z,23.70
2019-02-21T14:45:48.391Z,27.20
2019-02-21T14:46:50.280Z,26.50
2019-02-21T14:47:48.410Z,26.10
2019-02-21T14:48:48.428Z,22.00
2019-02-21T14:49:48.423Z,24.00
2019-02-21T14:50:48.437Z,23.40
2019-02-21T14:51:48.441Z,25.40
2019-02-21T14:52:48.515Z,27.10
2019-02-21T14:53:48.459Z,21.70
2019-02-21T14:54:48.470Z,23.90
2019-02-21T14:55:48.475Z,23.70
2019-02-21T14:56:48.490Z,22.50
2019-02-21T14:57:48.487Z,26.80
2019-02-21T14:58:48.496Z,27.50
2019-02-21T14:59:48.519Z,24.60
2019-02-21T15:00:48.528Z,24.40
2019-02-21T15:01:48.516Z,27.50
2019-02-21T15:02:48.544Z,25.30
2019-02-21T15:03:48.539Z,27.10
2019-02-21T15:04:48.546Z,28.30
2019-02-21T15:05:48.565Z,25.90
2019-02-21T15:06:48.567Z,22.20
2019-02-21T15:07:48.579Z,22.10
2019-02-21T15:08:48.589Z,26.70
2019-02-21T15:09:48.585Z,22.40
2019-02-21T15:10:48.595Z,19.60
2019-02-21T15:11:48.600Z,23.00
2019-02-21T15:12:48.616Z,18.00
2019-02-21T15:13:48.618Z,19.70
2019-02-21T15:14:48.636Z,22.30
2019-02-21T15:15:48.624Z,21.00
2019-02-21T15:16:48.648Z,19.70
2019-02-21T15:17:48.652Z,20.20
2019-02-21T15:18:48.661Z,27.50
2019-02-21T15:19:48.672Z,23.10
2019-02-21T15:20:48.686Z,18.90
2019-02-21T15:21:48.695Z,20.20
2019-02-21T15:22:48.694Z,17.90
2019-02-21T15:23:48.709Z,18.90
2019-02-21T15:24:48.714Z,23.10
2019-02-21T15:25:48.729Z,15.90
2019-02-21T15:26:48.728Z,15.90
2019-02-21T15:27:48.721Z,16.60
2019-02-21T15:28:48.738Z,16.70
2019-02-21T15:29:48.742Z,18.60
2019-02-21T15:30:48.754Z,20.30
2019-02-21T15:31:48.761Z,18.70
2019-02-21T15:32:48.768Z,18.60
2019-02-21T15:33:48.777Z,21.20
2019-02-21T15:34:48.785Z,18.50
2019-02-21T15:35:48.805Z,20.70
2019-02-21T15:36:48.803Z,16.70
2019-02-21T15:37:48.807Z,16.10
2019-02-21T15:38:48.926Z,17.50
2019-02-21T15:39:48.830Z,15.80
2019-02-21T15:40:48.841Z,15.90
2019-02-21T15:41:48.840Z,18.80
2019-02-21T15:42:48.850Z,13.70
2019-02-21T15:43:48.853Z,20.40
2019-02-21T15:44:48.889Z,17.10
2019-02-21T15:45:48.866Z,16.70
2019-02-21T15:46:48.891Z,16.00
2019-02-21T15:47:48.889Z,18.30
2019-02-21T15:48:48.977Z,19.50
2019-02-21T15:49:48.905Z,18.10
2019-02-21T15:50:48.914Z,16.20
2019-02-21T15:51:48.914Z,16.60
2019-02-21T15:52:48.926Z,15.70
2019-02-21T15:53:48.934Z,15.70
2019-02-21T15:54:48.947Z,16.10
2019-02-21T15:55:48.954Z,18.40
2019-02-21T15:56:48.962Z,18.30
2019-02-21T15:57:48.961Z,16.20
2019-02-21T15:58:48.969Z,14.60
2019-02-21T15:59:48.981Z,16.40
2019-02-21T16:00:48.976Z,16.50
2019-02-21T16:01:48.992Z,15.00
2019-02-21T16:02:48.996Z,16.70
2019-02-21T16:03:49.021Z,14.60
2019-02-21T16:04:49.013Z,17.20
2019-02-21T16:05:49.020Z,16.50
2019-02-21T16:06:51.843Z,15.10
2019-02-21T16:07:49.047Z,17.80
2019-02-21T16:08:49.045Z,14.20
2019-02-21T16:09:49.065Z,13.90
2019-02-21T16:10:49.057Z,16.80
2019-02-21T16:11:49.073Z,16.50
2019-02-21T16:12:49.639Z,16.90
2019-02-21T16:13:51.285Z,19.00
2019-02-21T16:14:49.083Z,18.00
2019-02-21T16:15:49.098Z,19.50
2019-02-21T16:16:49.106Z,16.30
2019-02-21T16:17:49.109Z,16.20
2019-02-21T16:18:49.117Z,20.80
2019-02-21T16:19:49.145Z,18.20
2019-02-21T16:20:49.123Z,20.30
2019-02-21T16:21:49.151Z,18.60
2019-02-21T16:22:49.144Z,17.50
2019-02-21T16:23:49.157Z,18.30
2019-02-21T16:24:49.152Z,16.90
2019-02-21T16:25:49.164Z,20.70
2019-02-21T16:26:49.158Z,17.20
2019-02-21T16:27:49.165Z,19.10
2019-02-21T16:28:49.184Z,22.90
2019-02-21T16:29:49.189Z,19.10
2019-02-21T16:30:49.196Z,20.10
2019-02-21T16:31:49.209Z,19.10
2019-02-21T16:32:49.211Z,22.10
2019-02-21T16:33:49.224Z,22.00
2019-02-21T16:34:49.221Z,21.10
2019-02-21T16:35:49.233Z,20.70
2019-02-21T16:36:49.242Z,18.70
2019-02-21T16:37:49.248Z,20.30
2019-02-21T16:38:49.250Z,20.70
2019-02-21T16:39:49.267Z,22.70
2019-02-21T16:40:49.344Z,22.90
2019-02-21T16:41:49.283Z,19.90
2019-02-21T16:42:49.277Z,25.00
2019-02-21T16:43:49.291Z,22.50
2019-02-21T16:44:49.300Z,25.20
2019-02-21T16:45:53.759Z,31.00
2019-02-21T16:46:49.312Z,27.20
2019-02-21T16:47:49.320Z,28.30
2019-02-21T16:48:49.334Z,28.90
2019-02-21T16:49:49.334Z,26.00
2019-02-21T16:50:49.331Z,25.80
2019-02-21T16:51:49.343Z,25.90
2019-02-21T16:52:49.357Z,32.00
2019-02-21T16:53:49.354Z,26.60
2019-02-21T16:54:49.370Z,25.70
2019-02-21T16:55:49.374Z,30.00
2019-02-21T16:56:49.376Z,24.10
2019-02-21T16:57:49.390Z,26.70
2019-02-21T16:58:49.397Z,24.60
2019-02-21T16:59:49.401Z,27.20
2019-02-21T17:00:54.704Z,27.50
2019-02-21T17:01:49.410Z,22.90
2019-02-21T17:02:49.419Z,27.90
2019-02-21T17:03:49.425Z,30.10
2019-02-21T17:04:49.442Z,26.80
2019-02-21T17:05:49.442Z,24.20
2019-02-21T17:06:49.521Z,27.50
2019-02-21T17:07:49.451Z,23.70
2019-02-21T17:08:49.459Z,28.90
2019-02-21T17:09:49.461Z,28.40
2019-02-21T17:10:49.468Z,28.00
2019-02-21T17:11:49.477Z,28.10
2019-02-21T17:13:49.492Z,27.00
2019-02-21T17:14:49.498Z,26.50
2019-02-21T17:15:49.509Z,28.50
2019-02-21T17:16:49.515Z,29.00
2019-02-21T17:17:49.579Z,26.20
2019-02-21T17:18:49.526Z,27.00
2019-02-21T17:19:49.531Z,28.20
2019-02-21T17:20:49.538Z,27.30
2019-02-21T17:21:49.540Z,30.40
2019-02-21T17:22:49.558Z,27.70
2019-02-21T17:23:49.575Z,28.40
2019-02-21T17:24:49.578Z,32.30
2019-02-21T17:25:49.577Z,28.20
2019-02-21T17:26:49.580Z,32.60
2019-02-21T17:27:49.592Z,30.80
2019-02-21T17:28:49.591Z,32.40
2019-02-21T17:29:49.591Z,28.50
2019-02-21T17:30:49.613Z,31.80
2019-02-21T17:31:49.648Z,32.50
2019-02-21T17:32:49.613Z,35.20
2019-02-21T17:33:49.629Z,32.40
2019-02-21T17:34:49.633Z,34.40
2019-02-21T17:35:49.650Z,37.10
2019-02-21T17:36:49.642Z,31.80
2019-02-21T17:37:49.661Z,33.20
2019-02-21T17:38:49.665Z,34.40
2019-02-21T17:39:49.665Z,34.60
2019-02-21T17:40:49.674Z,34.00
2019-02-21T17:41:49.682Z,31.20
2019-02-21T17:42:49.689Z,37.50
2019-02-21T17:43:49.706Z,36.90
2019-02-21T17:44:49.702Z,33.70
2019-02-21T17:45:49.716Z,34.50
2019-02-21T17:46:49.719Z,34.70
2019-02-21T17:47:49.725Z,38.30
2019-02-21T17:48:49.737Z,38.60
2019-02-21T17:49:49.734Z,38.30
2019-02-21T17:50:49.745Z,40.50
2019-02-21T17:51:49.747Z,39.80
2019-02-21T17:52:49.753Z,39.00
2019-02-21T17:53:49.750Z,34.90
2019-02-21T17:54:49.770Z,34.60
2019-02-21T17:55:49.779Z,37.50
2019-02-21T17:56:49.799Z,36.70
2019-02-21T17:57:49.788Z,40.20
2019-02-21T17:58:49.798Z,35.70
2019-02-21T17:59:49.808Z,38.10
2019-02-21T18:00:49.805Z,36.80
2019-02-21T18:01:49.814Z,36.10
2019-02-21T18:02:49.822Z,43.60
2019-02-21T18:03:49.837Z,35.40
2019-02-21T18:04:49.841Z,40.10
2019-02-21T18:05:49.852Z,37.70
2019-02-21T18:06:49.840Z,36.00
2019-02-21T18:07:49.850Z,36.90
2019-02-21T18:08:49.857Z,33.10
2019-02-21T18:09:49.863Z,32.20
2019-02-21T18:10:49.874Z,34.80
2019-02-21T18:11:49.892Z,31.20
2019-02-21T18:12:50.045Z,26.60
2019-02-21T18:13:49.901Z,31.50
2019-02-21T18:14:49.904Z,27.10
2019-02-21T18:15:49.899Z,29.50
2019-02-21T18:16:49.909Z,35.90
2019-02-21T18:17:49.917Z,28.50
2019-02-21T18:18:49.925Z,25.10
2019-02-21T18:19:49.931Z,31.40
2019-02-21T18:20:49.940Z,27.70
2019-02-21T18:21:49.953Z,29.90
2019-02-21T18:22:49.950Z,26.40
2019-02-21T18:23:49.954Z,26.80
2019-02-21T18:24:49.962Z,26.60
2019-02-21T18:25:49.967Z,26.70
2019-02-21T18:26:49.962Z,28.60
2019-02-21T18:27:49.978Z,28.80
2019-02-21T18:28:49.998Z,28.80
2019-02-21T18:29:50.005Z,27.30
2019-02-21T18:30:50.063Z,26.20
2019-02-21T18:31:50.849Z,26.10
2019-02-21T18:32:50.011Z,26.80
2019-02-21T18:33:50.037Z,24.60
2019-02-21T18:34:50.029Z,26.50
2019-02-21T18:35:50.038Z,22.40
2019-02-21T18:36:50.039Z,26.30
2019-02-21T18:37:50.045Z,28.60
2019-02-21T18:38:50.052Z,24.00
2019-02-21T18:39:50.062Z,26.60
2019-02-21T18:40:50.068Z,28.80
2019-02-21T18:41:50.067Z,26.50
2019-02-21T18:42:50.075Z,28.40
2019-02-21T18:43:50.076Z,26.20
2019-02-21T18:44:50.092Z,25.50
2019-02-21T18:45:50.096Z,29.00
2019-02-21T18:46:50.100Z,23.00
2019-02-21T18:47:50.106Z,27.20
2019-02-21T18:48:50.116Z,28.20
2019-02-21T18:49:50.157Z,29.70
2019-02-21T18:50:50.129Z,29.30
2019-02-21T18:51:50.226Z,25.90
2019-02-21T18:52:50.144Z,28.60
2019-02-21T18:53:50.139Z,33.00
2019-02-21T18:54:50.172Z,29.90
2019-02-21T18:55:50.170Z,30.60
2019-02-21T18:56:50.165Z,27.90
2019-02-21T18:57:50.174Z,29.60
2019-02-21T18:58:50.236Z,31.50
2019-02-21T18:59:50.187Z,30.60
2019-02-21T19:00:50.188Z,34.80
2019-02-21T19:01:50.197Z,29.30
2019-02-21T19:02:50.204Z,33.40
2019-02-21T19:03:50.211Z,31.40
2019-02-21T19:04:50.216Z,29.10
2019-02-21T19:05:50.221Z,29.50
2019-02-21T19:06:50.225Z,31.90
2019-02-21T19:07:58.313Z,28.90
2019-02-21T19:08:50.253Z,27.30
2019-02-21T19:09:50.251Z,29.90
2019-02-21T19:10:50.255Z,28.40
2019-02-21T19:11:50.260Z,28.00
2019-02-21T19:12:50.256Z,30.40
2019-02-21T19:13:50.274Z,35.20
2019-02-21T19:14:50.276Z,31.00
2019-02-21T19:15:50.286Z,30.50
2019-02-21T19:16:50.295Z,31.30
2019-02-21T19:17:50.304Z,29.70
2019-02-21T19:18:50.304Z,32.60
2019-02-21T19:19:50.320Z,32.70
2019-02-21T19:20:50.311Z,33.70
2019-02-21T19:21:50.324Z,32.60
2019-02-21T19:22:50.322Z,35.60
2019-02-21T19:23:50.332Z,29.40
2019-02-21T19:24:50.350Z,32.20
2019-02-21T19:25:50.346Z,30.40
2019-02-21T19:26:50.354Z,32.80
2019-02-21T19:27:50.360Z,32.10
2019-02-21T19:28:50.374Z,37.30
2019-02-21T19:29:50.371Z,36.80
2019-02-21T19:30:50.371Z,40.40
2019-02-21T19:31:50.394Z,41.70
2019-02-21T19:32:50.385Z,35.60
2019-02-21T19:33:50.392Z,41.50
2019-02-21T19:34:50.392Z,39.50
2019-02-21T19:35:50.410Z,33.30
2019-02-21T19:36:50.419Z,39.10
2019-02-21T19:37:50.469Z,34.50
2019-02-21T19:38:50.433Z,35.90
2019-02-21T19:39:50.440Z,37.90
2019-02-21T19:40:50.443Z,37.60
2019-02-21T19:41:50.442Z,35.30
2019-02-21T19:42:50.448Z,35.90
2019-02-21T19:43:50.456Z,44.90
2019-02-21T19:44:50.462Z,33.10
2019-02-21T19:45:50.470Z,39.50
2019-02-21T19:46:50.475Z,44.60
2019-02-21T19:47:50.497Z,40.80
2019-02-21T19:48:50.491Z,46.20
2019-02-21T19:49:50.496Z,43.60